Time;durP1;ratioP1;P1;durP2;ratioP2;P2;SDS_P1;SDS_P2;PMS_P1;PMS_P2;Temp;Humidity;BMP_temperature;BMP_pressure;BME280_temperature;BME280_humidity;BME280_pressure;Samples;Min_cycle;Max_cycle;Signal;HPM_P1;HPM_P2
2023/09/06 00:00:27;;;;;;;10.13;7.47;;;;;;;;;;5088911;28;20411;-76
2023/09/06 00:02:53;;;;;;;12.18;8.60;;;;;;;;;;5085773;28;20027;-77
2023/09/06 00:05:18;;;;;;;15.43;10.30;;;;;;;;;;5058623;28;20054;-76
2023/09/06 00:07:46;;;;;;;14.20;10.30;;;;;;;;;;5057595;28;20412;-76
2023/09/06 00:10:12;;;;;;;15.02;9.52;;;;;;;;;;5060609;28;20036;-77
2023/09/06 00:12:40;;;;;;;13.07;9.27;;;;;;;;;;5096606;28;20618;-76
2023/09/06 00:15:06;;;;;;;10.43;8.05;;;;;;;;;;5087223;28;20083;-79
2023/09/06 00:17:31;;;;;;;12.43;8.30;;;;;;;;;;5087458;28;20033;-76
2023/09/06 00:19:56;;;;;;;13.70;8.00;;;;;;;;;;5055062;28;20047;-76
2023/09/06 00:22:21;;;;;;;11.65;9.00;;;;;;;;;;5068065;28;20105;-76
2023/09/06 00:24:47;;;;;;;11.45;8.63;;;;;;;;;;5056624;28;20067;-76
2023/09/06 00:27:14;;;;;;;12.68;8.10;;;;;;;;;;5051159;28;20562;-76
2023/09/06 00:29:41;;;;;;;10.57;7.68;;;;;;;;;;5082498;28;20033;-76
2023/09/06 00:32:06;;;;;;;10.75;7.70;;;;;;;;;;5068107;28;20033;-76
2023/09/06 00:34:33;;;;;;;9.65;7.10;;;;;;;;;;5094780;28;20110;-76
2023/09/06 00:37:01;;;;;;;9.50;7.95;;;;;;;;;;5087959;28;20031;-76
2023/09/06 00:39:30;;;;;;;9.43;7.32;;;;;;;;;;5057831;28;20372;-76
2023/09/06 00:41:55;;;;;;;12.20;7.80;;;;;;;;;;5059397;28;20047;-78
2023/09/06 00:44:20;;;;;;;10.23;7.40;;;;;;;;;;5074197;28;20040;-76
2023/09/06 00:46:46;;;;;;;13.73;7.72;;;;;;;;;;5046885;28;20119;-76
2023/09/06 00:49:11;;;;;;;10.73;6.88;;;;;;;;;;5069394;28;20067;-76
2023/09/06 00:51:36;;;;;;;12.35;7.35;;;;;;;;;;5070910;28;20071;-75
2023/09/06 00:54:02;;;;;;;14.52;8.98;;;;;;;;;;5011821;28;20109;-76
2023/09/06 00:56:29;;;;;;;12.05;8.75;;;;;;;;;;5004872;28;20034;-76
2023/09/06 00:58:54;;;;;;;16.67;9.68;;;;;;;;;;5022027;28;20064;-76
2023/09/06 01:01:20;;;;;;;14.07;10.45;;;;;;;;;;5019443;28;20065;-76
2023/09/06 01:03:45;;;;;;;15.48;10.35;;;;;;;;;;5065751;28;20043;-76
2023/09/06 01:06:20;;;;;;;20.52;10.27;;;;;;;;;;5052131;28;20523;-76
2023/09/06 01:08:56;;;;;;;20.67;12.75;;;;;;;;;;5062884;28;20039;-76
2023/09/06 01:11:24;;;;;;;21.88;13.10;;;;;;;;;;5064808;28;20504;-76
2023/09/06 01:13:53;;;;;;;26.95;14.07;;;;;;;;;;5080198;28;20062;-76
2023/09/06 01:16:28;;;;;;;31.15;14.75;;;;;;;;;;5047150;28;20585;-76
2023/09/06 01:18:54;;;;;;;26.80;14.98;;;;;;;;;;5053466;28;20043;-76
2023/09/06 01:21:23;;;;;;;21.92;13.18;;;;;;;;;;5082406;28;20625;-78
2023/09/06 01:23:51;;;;;;;25.13;14.55;;;;;;;;;;5021915;28;20033;-76
2023/09/06 01:26:18;;;;;;;24.85;13.05;;;;;;;;;;5023022;28;20026;-76
2023/09/06 01:28:43;;;;;;;16.42;10.98;;;;;;;;;;5023221;28;20365;-78
2023/09/06 01:31:09;;;;;;;17.98;10.77;;;;;;;;;;4998719;28;20053;-78
2023/09/06 01:33:34;;;;;;;17.70;10.10;;;;;;;;;;5061699;28;20037;-77
2023/09/06 01:35:59;;;;;;;19.83;9.93;;;;;;;;;;5082185;28;20045;-76
2023/09/06 01:38:25;;;;;;;13.48;8.57;;;;;;;;;;5073737;28;20018;-78
2023/09/06 01:40:51;;;;;;;16.40;9.98;;;;;;;;;;5083127;28;20050;-77
2023/09/06 01:43:18;;;;;;;17.77;10.27;;;;;;;;;;5023726;28;20419;-76
2023/09/06 01:45:47;;;;;;;16.00;10.00;;;;;;;;;;5013005;28;20041;-76
2023/09/06 01:48:13;;;;;;;18.35;10.60;;;;;;;;;;5031114;28;20449;-76
2023/09/06 01:50:38;;;;;;;18.55;9.35;;;;;;;;;;5014661;28;20124;-76
2023/09/06 01:53:04;;;;;;;15.77;8.73;;;;;;;;;;5024916;28;20078;-76
2023/09/06 01:55:29;;;;;;;12.57;8.68;;;;;;;;;;5070191;28;20027;-76
2023/09/06 01:57:54;;;;;;;24.85;8.98;;;;;;;;;;5057758;28;20037;-76
2023/09/06 02:02:48;;;;;;;18.58;9.10;;;;;;;;;;5083550;28;20110;-77
2023/09/06 02:05:13;;;;;;;12.70;8.77;;;;;;;;;;5079343;28;20049;-76
2023/09/06 02:07:38;;;;;;;13.88;9.70;;;;;;;;;;5017530;28;20034;-76
2023/09/06 02:10:04;;;;;;;11.63;8.75;;;;;;;;;;5075092;28;20389;-77
2023/09/06 02:12:30;;;;;;;16.50;10.02;;;;;;;;;;5048957;28;20500;-77
2023/09/06 02:14:56;;;;;;;24.50;10.18;;;;;;;;;;5019614;28;20498;-76
2023/09/06 02:17:24;;;;;;;18.65;9.63;;;;;;;;;;5023242;28;20076;-77
2023/09/06 02:19:49;;;;;;;14.07;9.45;;;;;;;;;;5014905;28;20423;-76
2023/09/06 02:22:14;;;;;;;12.35;8.68;;;;;;;;;;5005231;28;20113;-77
2023/09/06 02:24:40;;;;;;;13.45;7.68;;;;;;;;;;5075262;28;20113;-77
2023/09/06 02:27:05;;;;;;;10.15;7.78;;;;;;;;;;5081355;28;20107;-76
2023/09/06 02:29:31;;;;;;;11.07;7.53;;;;;;;;;;5066341;28;20098;-77
2023/09/06 02:31:56;;;;;;;11.70;8.15;;;;;;;;;;5071180;28;20057;-77
2023/09/06 02:34:21;;;;;;;12.35;8.48;;;;;;;;;;5017028;28;20357;-77
2023/09/06 02:36:46;;;;;;;15.48;8.07;;;;;;;;;;4995885;28;20475;-77
2023/09/06 02:39:13;;;;;;;19.02;8.95;;;;;;;;;;5012492;28;20089;-76
2023/09/06 02:41:38;;;;;;;16.67;9.50;;;;;;;;;;5018886;28;20018;-76
2023/09/06 02:44:05;;;;;;;13.50;8.95;;;;;;;;;;5038385;28;20055;-77
2023/09/06 02:46:33;;;;;;;19.55;10.20;;;;;;;;;;5079801;28;20044;-76
2023/09/06 02:49:01;;;;;;;12.23;8.63;;;;;;;;;;5075696;28;20047;-77
2023/09/06 02:51:29;;;;;;;13.50;9.15;;;;;;;;;;5053557;28;20455;-79
2023/09/06 02:53:56;;;;;;;14.90;10.13;;;;;;;;;;5042773;28;20157;-77
2023/09/06 02:56:22;;;;;;;17.35;9.70;;;;;;;;;;5064054;28;20114;-79
2023/09/06 02:58:48;;;;;;;18.58;10.52;;;;;;;;;;5090686;28;20042;-77
2023/09/06 03:01:19;;;;;;;16.27;10.63;;;;;;;;;;5085190;28;20120;-77
2023/09/06 03:03:47;;;;;;;22.55;9.60;;;;;;;;;;5088314;28;20048;-77
2023/09/06 03:06:17;;;;;;;18.75;9.60;;;;;;;;;;5073392;28;20023;-76
2023/09/06 03:08:44;;;;;;;17.05;10.48;;;;;;;;;;5087403;28;20102;-77
2023/09/06 03:11:14;;;;;;;19.00;11.15;;;;;;;;;;5051080;28;20047;-76
2023/09/06 03:13:41;;;;;;;21.98;13.18;;;;;;;;;;5042185;28;20034;-76
2023/09/06 03:16:07;;;;;;;35.08;12.43;;;;;;;;;;5071847;28;20085;-77
2023/09/06 03:18:33;;;;;;;24.83;13.90;;;;;;;;;;5057709;28;20432;-76
2023/09/06 03:21:04;;;;;;;25.10;14.30;;;;;;;;;;5056214;28;20034;-76
2023/09/06 03:23:29;;;;;;;30.17;13.82;;;;;;;;;;5053029;28;20065;-77
2023/09/06 03:25:55;;;;;;;33.92;14.30;;;;;;;;;;5095126;28;20082;-77
2023/09/06 03:28:21;;;;;;;24.10;13.45;;;;;;;;;;5057847;28;20032;-77
2023/09/06 03:30:48;;;;;;;27.73;15.05;;;;;;;;;;5100860;28;20028;-78
2023/09/06 03:33:13;;;;;;;29.73;14.88;;;;;;;;;;5044288;28;20020;-79
2023/09/06 03:35:39;;;;;;;38.05;15.55;;;;;;;;;;5091386;28;20043;-76
2023/09/06 03:38:10;;;;;;;26.17;13.38;;;;;;;;;;5046948;28;20032;-78
2023/09/06 03:40:36;;;;;;;28.35;11.98;;;;;;;;;;5097583;28;20047;-78
2023/09/06 03:43:09;;;;;;;16.90;10.02;;;;;;;;;;5069759;28;20533;-79
2023/09/06 03:45:35;;;;;;;22.27;10.50;;;;;;;;;;5066617;28;20465;-79
2023/09/06 03:48:01;;;;;;;18.58;9.80;;;;;;;;;;5092638;28;20023;-78
2023/09/06 03:50:29;;;;;;;26.08;9.73;;;;;;;;;;5053915;28;20041;-78
2023/09/06 03:52:55;;;;;;;14.57;10.13;;;;;;;;;;5094583;28;20091;-78
2023/09/06 03:55:20;;;;;;;18.20;9.80;;;;;;;;;;5081125;28;20061;-77
2023/09/06 03:57:46;;;;;;;17.27;10.43;;;;;;;;;;5099822;28;20152;-76
2023/09/06 04:00:47;;;;;;;14.50;8.65;;;;;;;;;;5072996;28;20053;-78
2023/09/06 04:03:04;;;;;;;14.95;9.23;;;;;;;;;;5077513;28;20139;-78
2023/09/06 04:05:30;;;;;;;20.00;10.02;;;;;;;;;;5073888;28;20132;-78
2023/09/06 04:07:58;;;;;;;17.13;10.25;;;;;;;;;;5073898;28;20031;-77
2023/09/06 04:10:27;;;;;;;23.85;11.77;;;;;;;;;;5073186;28;20487;-78
2023/09/06 04:12:55;;;;;;;18.27;12.15;;;;;;;;;;5089433;28;20050;-77
2023/09/06 04:15:21;;;;;;;18.30;11.77;;;;;;;;;;5084988;28;20027;-78
2023/09/06 04:17:57;;;;;;;19.92;10.77;;;;;;;;;;5090377;28;20054;-77
2023/09/06 04:20:27;;;;;;;19.60;11.00;;;;;;;;;;5093182;28;20034;-77
2023/09/06 04:22:55;;;;;;;18.20;10.13;;;;;;;;;;5052180;28;20038;-78
2023/09/06 04:25:22;;;;;;;14.10;9.55;;;;;;;;;;5019419;28;20683;-80
2023/09/06 04:27:49;;;;;;;16.13;8.40;;;;;;;;;;5035539;28;20090;-78
2023/09/06 04:30:17;;;;;;;15.57;8.25;;;;;;;;;;5011021;28;20468;-78
2023/09/06 04:32:45;;;;;;;15.55;10.13;;;;;;;;;;5000593;28;20045;-78
2023/09/06 04:35:15;;;;;;;14.70;9.73;;;;;;;;;;5010825;28;20168;-78
2023/09/06 04:37:40;;;;;;;17.75;9.85;;;;;;;;;;5013181;28;20060;-78
2023/09/06 04:40:14;;;;;;;18.98;9.98;;;;;;;;;;5023839;28;20038;-78
2023/09/06 04:42:42;;;;;;;17.08;10.57;;;;;;;;;;5039617;28;20049;-78
2023/09/06 04:45:10;;;;;;;15.02;9.55;;;;;;;;;;5072864;28;20048;-78
2023/09/06 04:47:43;;;;;;;18.13;10.98;;;;;;;;;;5103094;28;20080;-78
2023/09/06 04:50:11;;;;;;;17.67;10.48;;;;;;;;;;5105348;28;20052;-78
2023/09/06 04:52:43;;;;;;;18.88;10.73;;;;;;;;;;5047547;28;20037;-78
2023/09/06 04:55:09;;;;;;;22.20;12.27;;;;;;;;;;5028020;28;20039;-78
2023/09/06 04:57:36;;;;;;;22.63;12.75;;;;;;;;;;5064590;28;20059;-78
2023/09/06 05:00:09;;;;;;;21.63;10.65;;;;;;;;;;5034492;28;20052;-77
2023/09/06 05:02:34;;;;;;;34.22;16.90;;;;;;;;;;5029823;28;20134;-78
2023/09/06 05:04:59;;;;;;;33.38;16.85;;;;;;;;;;5071192;28;20079;-77
2023/09/06 05:07:25;;;;;;;26.33;13.73;;;;;;;;;;5048235;28;20032;-78
2023/09/06 05:09:53;;;;;;;27.80;16.13;;;;;;;;;;5059230;28;20030;-78
2023/09/06 05:12:21;;;;;;;26.95;15.13;;;;;;;;;;5073961;28;20027;-78
2023/09/06 05:14:47;;;;;;;29.90;15.15;;;;;;;;;;5058000;28;20493;-78
2023/09/06 05:17:13;;;;;;;23.02;13.90;;;;;;;;;;5051431;28;20027;-79
2023/09/06 05:19:38;;;;;;;23.63;14.18;;;;;;;;;;5027596;28;20306;-78
2023/09/06 05:22:04;;;;;;;25.20;14.43;;;;;;;;;;5070774;28;20038;-78
2023/09/06 05:24:29;;;;;;;33.58;15.02;;;;;;;;;;5025708;28;20087;-78
2023/09/06 05:26:54;;;;;;;24.75;13.02;;;;;;;;;;5014332;28;20030;-79
2023/09/06 05:29:20;;;;;;;19.88;13.35;;;;;;;;;;5014478;28;20034;-77
2023/09/06 05:31:45;;;;;;;16.85;11.32;;;;;;;;;;5013888;28;20042;-78
2023/09/06 05:34:10;;;;;;;22.30;11.85;;;;;;;;;;5001482;28;20111;-77
2023/09/06 05:36:35;;;;;;;10.68;8.68;;;;;;;;;;5029386;28;20053;-76
2023/09/06 05:39:01;;;;;;;15.15;10.05;;;;;;;;;;5055860;28;20109;-78
2023/09/06 05:41:26;;;;;;;12.23;9.13;;;;;;;;;;5096180;28;20084;-77
2023/09/06 05:43:51;;;;;;;12.50;9.65;;;;;;;;;;5057568;28;20030;-77
2023/09/06 05:46:17;;;;;;;19.63;9.77;;;;;;;;;;5051936;28;20054;-77
2023/09/06 05:48:42;;;;;;;9.30;7.53;;;;;;;;;;4994642;28;20030;-78
2023/09/06 05:51:08;;;;;;;10.52;7.03;;;;;;;;;;5092436;28;20039;-77
2023/09/06 05:53:33;;;;;;;9.18;7.10;;;;;;;;;;5033466;28;20032;-78
2023/09/06 05:55:58;;;;;;;7.90;7.07;;;;;;;;;;5024625;28;20171;-78
2023/09/06 05:58:24;;;;;;;8.15;6.78;;;;;;;;;;5014416;28;20039;-78
2023/09/06 06:00:55;;;;;;;10.50;6.90;;;;;;;;;;5117571;28;20416;-78
2023/09/06 06:03:20;;;;;;;8.80;6.90;;;;;;;;;;5099394;28;20080;-78
2023/09/06 06:05:45;;;;;;;10.10;6.90;;;;;;;;;;5073197;28;20492;-78
2023/09/06 06:08:11;;;;;;;7.95;6.05;;;;;;;;;;5015490;28;20045;-79
2023/09/06 06:10:36;;;;;;;5.82;5.00;;;;;;;;;;5014453;28;20529;-78
2023/09/06 06:13:03;;;;;;;6.13;5.28;;;;;;;;;;5013003;28;20051;-78
2023/09/06 06:15:31;;;;;;;6.75;5.68;;;;;;;;;;5025240;28;20618;-77
2023/09/06 06:17:56;;;;;;;7.43;5.28;;;;;;;;;;5017670;28;20070;-78
2023/09/06 06:20:22;;;;;;;7.28;5.57;;;;;;;;;;5033195;27;20037;-78
2023/09/06 06:22:47;;;;;;;8.05;5.93;;;;;;;;;;5062682;28;20043;-78
2023/09/06 06:25:12;;;;;;;5.85;5.25;;;;;;;;;;5097777;28;20043;-78
2023/09/06 06:27:39;;;;;;;7.65;5.60;;;;;;;;;;5098935;28;20051;-79
2023/09/06 06:30:06;;;;;;;7.00;5.20;;;;;;;;;;5099002;28;20027;-78
2023/09/06 06:32:32;;;;;;;5.07;4.32;;;;;;;;;;5055900;28;20017;-77
2023/09/06 06:35:01;;;;;;;5.20;4.70;;;;;;;;;;5013487;28;20416;-77
2023/09/06 06:37:27;;;;;;;5.60;5.00;;;;;;;;;;5013486;28;20042;-78
2023/09/06 06:39:52;;;;;;;7.82;4.75;;;;;;;;;;5012415;28;20353;-78
2023/09/06 06:42:18;;;;;;;5.20;4.55;;;;;;;;;;5047974;28;20037;-78
2023/09/06 06:44:47;;;;;;;4.50;3.95;;;;;;;;;;5032893;28;20021;-78
2023/09/06 06:47:13;;;;;;;4.82;4.15;;;;;;;;;;5031345;28;20033;-78
2023/09/06 06:49:38;;;;;;;5.95;4.25;;;;;;;;;;5032149;28;20116;-78
2023/09/06 06:52:04;;;;;;;7.10;4.78;;;;;;;;;;5013731;28;20060;-78
2023/09/06 06:54:29;;;;;;;5.57;4.32;;;;;;;;;;5013557;28;20178;-78
2023/09/06 06:56:54;;;;;;;5.57;4.18;;;;;;;;;;5014870;28;20074;-78
2023/09/06 06:59:20;;;;;;;4.72;4.32;;;;;;;;;;5012723;27;20038;-78
2023/09/06 07:01:47;;;;;;;5.72;4.03;;;;;;;;;;5106370;28;20061;-79
2023/09/06 07:04:12;;;;;;;9.70;4.90;;;;;;;;;;5096139;28;20042;-78
2023/09/06 07:06:38;;;;;;;5.00;4.20;;;;;;;;;;5114992;28;20028;-79
2023/09/06 07:09:03;;;;;;;6.57;4.43;;;;;;;;;;5091835;28;20041;-79
2023/09/06 07:11:29;;;;;;;5.18;4.15;;;;;;;;;;4994564;28;20441;-78
2023/09/06 07:13:54;;;;;;;4.72;4.13;;;;;;;;;;4993333;28;20353;-79
2023/09/06 07:16:20;;;;;;;4.97;4.10;;;;;;;;;;5053453;28;20042;-78
2023/09/06 07:18:46;;;;;;;4.00;3.42;;;;;;;;;;5049312;28;20038;-77
2023/09/06 07:21:13;;;;;;;5.00;3.60;;;;;;;;;;5050015;28;20019;-79
2023/09/06 07:23:38;;;;;;;4.22;3.13;;;;;;;;;;5014989;28;20164;-79
2023/09/06 07:26:04;;;;;;;10.02;3.95;;;;;;;;;;5014435;28;20045;-78
2023/09/06 07:28:44;;;;;;;4.60;3.00;;;;;;;;;;5072114;28;20040;-79
2023/09/06 07:31:10;;;;;;;4.40;3.10;;;;;;;;;;5083736;28;20436;-78
2023/09/06 07:33:36;;;;;;;3.63;3.13;;;;;;;;;;4998363;28;20041;-79
2023/09/06 07:36:01;;;;;;;3.00;2.70;;;;;;;;;;5022309;28;20078;-79
2023/09/06 07:38:27;;;;;;;6.47;2.80;;;;;;;;;;5070402;28;20030;-79
2023/09/06 07:41:00;;;;;;;4.45;3.20;;;;;;;;;;5072858;28;20031;-79
2023/09/06 07:43:28;;;;;;;3.83;3.42;;;;;;;;;;5104814;28;20031;-79
2023/09/06 07:45:57;;;;;;;2.92;2.70;;;;;;;;;;5053761;28;20468;-79
2023/09/06 07:48:24;;;;;;;3.58;3.00;;;;;;;;;;5046719;28;20034;-79
2023/09/06 07:50:50;;;;;;;3.25;2.95;;;;;;;;;;5015560;28;20575;-78
2023/09/06 07:53:15;;;;;;;4.32;3.35;;;;;;;;;;5054743;28;20036;-78
2023/09/06 07:55:44;;;;;;;3.58;3.00;;;;;;;;;;5051273;28;20151;-79
2023/09/06 07:58:09;;;;;;;3.00;2.70;;;;;;;;;;5043931;28;20037;-79
2023/09/06 08:00:36;;;;;;;4.03;2.65;;;;;;;;;;5014740;28;20454;-79
2023/09/06 08:03:02;;;;;;;4.30;2.75;;;;;;;;;;5096960;28;20012;-79
2023/09/06 08:05:27;;;;;;;4.63;2.67;;;;;;;;;;5046508;28;20100;-79
2023/09/06 08:07:53;;;;;;;3.53;2.75;;;;;;;;;;5028393;28;20047;-79
2023/09/06 08:10:18;;;;;;;3.97;2.90;;;;;;;;;;5024823;28;20047;-78
2023/09/06 08:12:43;;;;;;;4.60;2.80;;;;;;;;;;5072306;28;20244;-79
2023/09/06 08:15:09;;;;;;;3.15;2.80;;;;;;;;;;4997068;28;20056;-79
2023/09/06 08:17:34;;;;;;;3.60;2.70;;;;;;;;;;5074986;28;20494;-78
2023/09/06 08:19:59;;;;;;;2.70;2.50;;;;;;;;;;5065309;28;20042;-79
2023/09/06 08:22:25;;;;;;;2.90;2.58;;;;;;;;;;5065856;28;20574;-78
2023/09/06 08:24:50;;;;;;;3.92;2.50;;;;;;;;;;5046982;28;20034;-79
2023/09/06 08:27:16;;;;;;;6.57;2.50;;;;;;;;;;5016692;28;20094;-79
2023/09/06 08:29:41;;;;;;;4.20;2.53;;;;;;;;;;5075602;28;20033;-78
2023/09/06 08:32:08;;;;;;;4.45;2.88;;;;;;;;;;5062510;28;20036;-79
2023/09/06 08:34:33;;;;;;;2.70;2.50;;;;;;;;;;5069922;28;20044;-79
2023/09/06 08:36:58;;;;;;;6.40;2.80;;;;;;;;;;5063977;28;20117;-79
2023/09/06 08:39:24;;;;;;;3.33;3.00;;;;;;;;;;5038142;28;20081;-79
2023/09/06 08:41:51;;;;;;;3.10;2.80;;;;;;;;;;5041905;28;20060;-79
2023/09/06 08:44:23;;;;;;;4.07;2.70;;;;;;;;;;5042588;28;20041;-78
2023/09/06 08:46:53;;;;;;;4.15;2.65;;;;;;;;;;5076446;28;20505;-78
2023/09/06 08:49:20;;;;;;;8.35;3.10;;;;;;;;;;5071770;28;20066;-78
2023/09/06 08:51:46;;;;;;;4.70;3.13;;;;;;;;;;5024000;28;20054;-79
2023/09/06 08:54:13;;;;;;;3.20;2.90;;;;;;;;;;5028368;28;20113;-79
2023/09/06 08:56:38;;;;;;;3.75;2.72;;;;;;;;;;4991018;28;20021;-78
2023/09/06 08:59:05;;;;;;;3.60;3.05;;;;;;;;;;5023355;28;20042;-79
2023/09/06 09:01:30;;;;;;;6.63;3.33;;;;;;;;;;5010272;28;20508;-78
2023/09/06 09:03:56;;;;;;;3.30;3.00;;;;;;;;;;5029520;28;20036;-78
2023/09/06 09:06:21;;;;;;;3.60;3.05;;;;;;;;;;5059985;28;20040;-76
2023/09/06 09:08:47;;;;;;;3.78;3.17;;;;;;;;;;5028650;28;20023;-79
2023/09/06 09:11:14;;;;;;;3.67;2.75;;;;;;;;;;5039093;28;20038;-79
2023/09/06 09:13:41;;;;;;;2.85;2.65;;;;;;;;;;5062984;28;20444;-79
2023/09/06 09:16:14;;;;;;;3.35;2.95;;;;;;;;;;5057578;28;20042;-76
2023/09/06 09:18:41;;;;;;;4.05;2.80;;;;;;;;;;5040758;28;20056;-79
2023/09/06 09:21:13;;;;;;;3.70;3.00;;;;;;;;;;5030959;28;20176;-78
2023/09/06 09:23:54;;;;;;;5.30;2.92;;;;;;;;;;5070202;28;20053;-79
2023/09/06 09:26:20;;;;;;;3.03;2.80;;;;;;;;;;5040489;28;20041;-77
2023/09/06 09:28:46;;;;;;;3.38;3.00;;;;;;;;;;5058316;28;20030;-78
2023/09/06 09:31:20;;;;;;;4.03;3.20;;;;;;;;;;5054762;28;20427;-79
2023/09/06 09:33:52;;;;;;;3.42;2.78;;;;;;;;;;5070770;28;20037;-78
2023/09/06 09:36:18;;;;;;;3.03;2.70;;;;;;;;;;5104307;28;20020;-78
2023/09/06 09:38:51;;;;;;;3.00;2.75;;;;;;;;;;5015104;28;20063;-78
2023/09/06 09:41:16;;;;;;;5.00;2.83;;;;;;;;;;5049128;28;20092;-79
2023/09/06 09:43:41;;;;;;;2.90;2.70;;;;;;;;;;5057342;28;20141;-79
2023/09/06 09:46:08;;;;;;;3.53;2.95;;;;;;;;;;5036388;28;20038;-78
2023/09/06 09:48:34;;;;;;;3.72;2.90;;;;;;;;;;5041742;28;20045;-78
2023/09/06 09:51:01;;;;;;;3.58;3.00;;;;;;;;;;4997116;28;20026;-77
2023/09/06 09:53:30;;;;;;;6.63;2.95;;;;;;;;;;5037737;28;20500;-79
2023/09/06 09:55:56;;;;;;;3.72;3.25;;;;;;;;;;5050059;28;20046;-77
2023/09/06 09:58:21;;;;;;;3.20;2.90;;;;;;;;;;5074135;28;20036;-77
2023/09/06 10:00:50;;;;;;;5.93;2.92;;;;;;;;;;5043439;28;20038;-76
2023/09/06 10:03:15;;;;;;;3.00;2.67;;;;;;;;;;5016604;28;20042;-78
2023/09/06 10:05:42;;;;;;;3.58;3.08;;;;;;;;;;5056007;28;20029;-78
2023/09/06 10:08:09;;;;;;;3.35;3.05;;;;;;;;;;5086667;28;20036;-78
2023/09/06 10:10:39;;;;;;;3.20;2.90;;;;;;;;;;5038998;28;20408;-78
2023/09/06 10:13:07;;;;;;;4.10;3.20;;;;;;;;;;5059825;28;20040;-78
2023/09/06 10:15:34;;;;;;;2.92;2.65;;;;;;;;;;5067625;28;20030;-78
2023/09/06 10:18:00;;;;;;;5.10;3.25;;;;;;;;;;5077573;28;20018;-78
2023/09/06 10:20:27;;;;;;;4.68;2.95;;;;;;;;;;5025392;28;20041;-78
2023/09/06 10:22:55;;;;;;;3.83;3.00;;;;;;;;;;5070306;28;20030;-78
2023/09/06 10:25:21;;;;;;;4.05;3.40;;;;;;;;;;5046310;28;20047;-77
2023/09/06 10:27:54;;;;;;;4.05;3.63;;;;;;;;;;5062579;28;20040;-78
2023/09/06 10:30:28;;;;;;;3.33;3.03;;;;;;;;;;5049636;28;20034;-78
2023/09/06 10:32:54;;;;;;;4.13;3.45;;;;;;;;;;5026627;28;20019;-78
2023/09/06 10:35:25;;;;;;;3.85;3.50;;;;;;;;;;5012488;28;20129;-78
2023/09/06 10:38:11;;;;;;;4.85;3.40;;;;;;;;;;5015578;28;20027;-78
2023/09/06 10:40:53;;;;;;;6.10;3.60;;;;;;;;;;5074543;28;20264;-78
2023/09/06 10:43:27;;;;;;;6.72;4.03;;;;;;;;;;5017942;28;20518;-78
2023/09/06 10:45:56;;;;;;;4.13;3.80;;;;;;;;;;5078379;28;20030;-78
2023/09/06 10:48:22;;;;;;;4.15;3.75;;;;;;;;;;5048180;28;20020;-78
2023/09/06 10:51:06;;;;;;;4.90;3.65;;;;;;;;;;5035135;28;20023;-78
2023/09/06 10:53:36;;;;;;;5.88;3.70;;;;;;;;;;5017654;28;20051;-79
2023/09/06 10:56:02;;;;;;;5.53;3.47;;;;;;;;;;5016389;28;20030;-79
2023/09/06 10:58:29;;;;;;;5.60;3.13;;;;;;;;;;5028791;28;20034;-79
2023/09/06 11:01:13;;;;;;;6.57;3.80;;;;;;;;;;5101900;28;20041;-78
2023/09/06 11:03:40;;;;;;;3.70;3.40;;;;;;;;;;5052129;28;20125;-77
2023/09/06 11:06:05;;;;;;;3.33;3.03;;;;;;;;;;5006063;28;20510;-78
2023/09/06 11:08:31;;;;;;;5.72;3.20;;;;;;;;;;5014045;28;20107;-79
2023/09/06 11:11:09;;;;;;;3.90;3.50;;;;;;;;;;5037280;28;20042;-78
2023/09/06 11:13:36;;;;;;;4.32;3.47;;;;;;;;;;5074194;28;20028;-78
2023/09/06 11:16:03;;;;;;;3.83;3.10;;;;;;;;;;5041457;28;20121;-79
2023/09/06 11:18:32;;;;;;;4.30;3.00;;;;;;;;;;5033563;28;20055;-78
2023/09/06 11:20:59;;;;;;;4.68;2.97;;;;;;;;;;5045795;28;20099;-78
2023/09/06 11:23:24;;;;;;;3.78;3.08;;;;;;;;;;5085653;28;20508;-78
2023/09/06 11:26:00;;;;;;;3.85;3.00;;;;;;;;;;5009370;28;20052;-76
2023/09/06 11:28:30;;;;;;;3.65;3.10;;;;;;;;;;5034042;28;20041;-76
2023/09/06 11:30:58;;;;;;;5.00;2.90;;;;;;;;;;5060321;28;20034;-77
2023/09/06 11:33:31;;;;;;;7.63;3.53;;;;;;;;;;5084115;28;20731;-76
2023/09/06 11:35:58;;;;;;;8.68;3.17;;;;;;;;;;5028888;28;20033;-77
2023/09/06 11:38:30;;;;;;;5.32;2.72;;;;;;;;;;5063691;28;20389;-76
2023/09/06 11:40:57;;;;;;;7.28;3.50;;;;;;;;;;5038237;28;20038;-77
2023/09/06 11:43:24;;;;;;;3.45;3.15;;;;;;;;;;5013161;28;20035;-77
2023/09/06 11:45:54;;;;;;;4.05;3.55;;;;;;;;;;5050149;28;20047;-76
2023/09/06 11:48:27;;;;;;;3.55;3.25;;;;;;;;;;5049791;28;20031;-76
2023/09/06 11:51:01;;;;;;;3.58;3.28;;;;;;;;;;5035373;28;20033;-77
2023/09/06 11:53:27;;;;;;;3.15;2.80;;;;;;;;;;5037278;28;20039;-76
2023/09/06 11:55:59;;;;;;;3.47;3.17;;;;;;;;;;5030801;28;20567;-76
2023/09/06 11:58:26;;;;;;;5.05;3.03;;;;;;;;;;5068610;28;20038;-76
2023/09/06 12:00:51;;;;;;;4.47;3.30;;;;;;;;;;5052105;28;20046;-76
2023/09/06 12:03:20;;;;;;;4.72;3.13;;;;;;;;;;5021161;28;20468;-77
2023/09/06 12:05:50;;;;;;;3.65;3.25;;;;;;;;;;5029854;28;20049;-77
2023/09/06 12:08:19;;;;;;;5.40;3.25;;;;;;;;;;5015090;28;20033;-77
2023/09/06 12:10:52;;;;;;;3.33;2.97;;;;;;;;;;5017847;28;20042;-77
2023/09/06 12:13:34;;;;;;;5.20;3.15;;;;;;;;;;5060575;28;20032;-77
2023/09/06 12:16:01;;;;;;;11.20;3.47;;;;;;;;;;5077858;28;20036;-77
2023/09/06 12:18:28;;;;;;;7.95;3.20;;;;;;;;;;5054170;28;20040;-76
2023/09/06 12:20:56;;;;;;;5.07;3.20;;;;;;;;;;5043591;28;20060;-77
2023/09/06 12:23:22;;;;;;;6.30;3.22;;;;;;;;;;4983596;28;20077;-77
2023/09/06 12:25:48;;;;;;;4.05;3.42;;;;;;;;;;4994638;28;20111;-77
2023/09/06 12:28:13;;;;;;;7.10;3.42;;;;;;;;;;5003023;28;20049;-76
2023/09/06 12:30:39;;;;;;;3.70;3.40;;;;;;;;;;5017677;28;20043;-75
2023/09/06 12:33:04;;;;;;;7.35;3.30;;;;;;;;;;4992531;28;20090;-75
2023/09/06 12:35:35;;;;;;;8.55;3.88;;;;;;;;;;5007212;28;20075;-75
2023/09/06 12:38:01;;;;;;;5.50;3.42;;;;;;;;;;4983858;28;20053;-76
2023/09/06 12:40:28;;;;;;;5.15;3.33;;;;;;;;;;4999613;28;20039;-75
2023/09/06 12:42:54;;;;;;;4.60;3.30;;;;;;;;;;5010623;28;20049;-75
2023/09/06 12:45:33;;;;;;;4.50;3.53;;;;;;;;;;5000723;28;20022;-75
2023/09/06 12:48:00;;;;;;;5.35;3.53;;;;;;;;;;5005235;28;20030;-75
2023/09/06 12:50:26;;;;;;;4.60;3.67;;;;;;;;;;4998561;28;20046;-75
2023/09/06 12:52:52;;;;;;;5.57;3.40;;;;;;;;;;5005452;28;20035;-76
2023/09/06 12:55:18;;;;;;;6.45;3.63;;;;;;;;;;5018147;28;20049;-74
2023/09/06 12:57:43;;;;;;;4.90;3.47;;;;;;;;;;5051458;28;20502;-75
2023/09/06 13:00:12;;;;;;;18.02;4.38;;;;;;;;;;5039690;28;20096;-75
2023/09/06 13:02:38;;;;;;;5.32;3.85;;;;;;;;;;5032000;28;20030;-75
2023/09/06 13:05:04;;;;;;;5.10;3.10;;;;;;;;;;4998222;28;20054;-75
2023/09/06 13:07:30;;;;;;;4.93;3.53;;;;;;;;;;5002114;28;20062;-74
2023/09/06 13:09:56;;;;;;;5.25;3.75;;;;;;;;;;5001077;28;20503;-74
2023/09/06 13:12:22;;;;;;;4.05;3.50;;;;;;;;;;5007672;28;20029;-74
2023/09/06 13:14:47;;;;;;;4.07;3.70;;;;;;;;;;5063123;28;20030;-75
2023/09/06 13:17:12;;;;;;;5.30;3.88;;;;;;;;;;5063203;28;20036;-75
2023/09/06 13:19:42;;;;;;;6.32;3.88;;;;;;;;;;5052191;28;20084;-77
2023/09/06 13:22:07;;;;;;;5.80;3.70;;;;;;;;;;5022795;28;20109;-75
2023/09/06 13:24:33;;;;;;;4.82;3.60;;;;;;;;;;5000232;28;20146;-75
2023/09/06 13:26:59;;;;;;;4.65;3.75;;;;;;;;;;5003930;28;20084;-76
2023/09/06 13:29:25;;;;;;;9.75;4.10;;;;;;;;;;4996017;28;20056;-75
2023/09/06 13:31:51;;;;;;;4.82;4.05;;;;;;;;;;5016255;28;20039;-75
2023/09/06 13:34:16;;;;;;;5.80;3.88;;;;;;;;;;4985887;28;20048;-75
2023/09/06 13:36:41;;;;;;;6.80;3.58;;;;;;;;;;4993580;28;20045;-75
2023/09/06 13:39:09;;;;;;;4.10;3.70;;;;;;;;;;5000594;28;20030;-74
2023/09/06 13:41:35;;;;;;;5.88;3.60;;;;;;;;;;5038383;28;20014;-75
2023/09/06 13:44:00;;;;;;;7.93;3.72;;;;;;;;;;4993938;28;20061;-75
2023/09/06 13:46:26;;;;;;;5.70;3.67;;;;;;;;;;4974726;28;20035;-74
2023/09/06 13:48:52;;;;;;;4.90;3.80;;;;;;;;;;4996135;28;20077;-74
2023/09/06 13:51:18;;;;;;;4.90;3.70;;;;;;;;;;5003641;28;20484;-77
2023/09/06 13:53:46;;;;;;;4.95;3.47;;;;;;;;;;5005664;28;20036;-75
2023/09/06 13:56:12;;;;;;;5.93;3.45;;;;;;;;;;4999133;28;20170;-74
2023/09/06 13:58:38;;;;;;;5.82;3.42;;;;;;;;;;5005891;28;20583;-74
2023/09/06 14:01:03;;;;;;;13.02;3.67;;;;;;;;;;5008770;28;20054;-74
2023/09/06 14:03:28;;;;;;;4.13;3.33;;;;;;;;;;5000307;28;20038;-75
2023/09/06 14:05:54;;;;;;;4.88;3.42;;;;;;;;;;4981643;28;20389;-75
2023/09/06 14:08:20;;;;;;;3.92;3.45;;;;;;;;;;5016667;28;20089;-75
2023/09/06 14:10:49;;;;;;;3.78;3.38;;;;;;;;;;5030752;28;20052;-75
2023/09/06 14:13:14;;;;;;;7.60;3.35;;;;;;;;;;4997730;28;20037;-75
2023/09/06 14:15:39;;;;;;;5.55;2.95;;;;;;;;;;4996429;28;20076;-75
2023/09/06 14:18:06;;;;;;;3.55;3.25;;;;;;;;;;5000186;28;20018;-75
2023/09/06 14:20:34;;;;;;;3.30;3.00;;;;;;;;;;4997718;28;20025;-75
2023/09/06 14:23:00;;;;;;;4.00;3.38;;;;;;;;;;5002405;28;20091;-74
2023/09/06 14:25:25;;;;;;;3.63;3.15;;;;;;;;;;4982961;28;21180;-74
2023/09/06 14:27:51;;;;;;;5.18;3.00;;;;;;;;;;4983679;28;20042;-74
2023/09/06 14:30:16;;;;;;;3.90;3.33;;;;;;;;;;5002147;28;20030;-76
2023/09/06 14:32:41;;;;;;;3.42;3.13;;;;;;;;;;4995162;28;20029;-74
2023/09/06 14:35:07;;;;;;;4.70;3.03;;;;;;;;;;4977013;28;20398;-74
2023/09/06 14:37:32;;;;;;;3.60;2.90;;;;;;;;;;4998846;28;20064;-74